createdAt,value
2023-03-27T00:01:17.094Z,100.00
2023-03-27T00:03:44.910Z,100.00
2023-03-27T00:06:17.232Z,100.00
2023-03-27T00:09:06.355Z,100.00
2023-03-27T00:11:47.050Z,100.00
2023-03-27T00:14:30.823Z,100.00
2023-03-27T00:17:19.238Z,100.00
2023-03-27T00:20:14.048Z,100.00
2023-03-27T00:23:03.272Z,100.00
2023-03-27T00:25:31.033Z,100.00
2023-03-27T00:28:01.972Z,100.00
2023-03-27T00:30:31.240Z,100.00
2023-03-27T00:32:58.857Z,100.00
2023-03-27T00:35:28.948Z,100.00
2023-03-27T00:37:57.532Z,100.00
2023-03-27T00:40:24.466Z,100.00
2023-03-27T00:42:52.369Z,100.00
2023-03-27T00:45:26.833Z,100.00
2023-03-27T00:47:58.595Z,100.00
2023-03-27T00:50:35.051Z,100.00
2023-03-27T00:53:09.323Z,100.00
2023-03-27T00:55:43.880Z,100.00
2023-03-27T00:58:16.939Z,100.00
2023-03-27T01:00:44.090Z,100.00
2023-03-27T01:03:11.973Z,100.00
2023-03-27T01:05:39.091Z,100.00
2023-03-27T01:08:07.702Z,100.00
2023-03-27T01:11:08.069Z,100.00
2023-03-27T01:14:28.030Z,100.00
2023-03-27T01:17:33.494Z,100.00
2023-03-27T01:20:26.998Z,100.00
2023-03-27T01:23:59.661Z,100.00
2023-03-27T01:27:01.958Z,100.00
2023-03-27T01:29:48.781Z,100.00
2023-03-27T01:32:37.426Z,100.00
2023-03-27T01:35:18.776Z,100.00
2023-03-27T01:38:16.160Z,100.00
2023-03-27T01:41:02.597Z,100.00
2023-03-27T01:43:41.969Z,100.00
2023-03-27T01:46:27.246Z,100.00
2023-03-27T01:49:07.546Z,100.00
2023-03-27T01:51:46.580Z,100.00
2023-03-27T01:54:33.226Z,100.00
2023-03-27T01:57:16.263Z,100.00
2023-03-27T01:59:48.712Z,100.00
2023-03-27T02:02:24.129Z,100.00
2023-03-27T02:05:01.680Z,100.00
2023-03-27T02:07:38.979Z,100.00
2023-03-27T02:10:11.592Z,100.00
2023-03-27T02:12:43.710Z,100.00
2023-03-27T02:15:22.534Z,100.00
2023-03-27T02:18:06.429Z,100.00
2023-03-27T02:20:34.915Z,100.00
2023-03-27T02:23:02.328Z,100.00
2023-03-27T02:25:34.452Z,100.00
2023-03-27T02:28:29.550Z,100.00
2023-03-27T02:31:34.150Z,100.00
2023-03-27T02:34:08.720Z,100.00
2023-03-27T02:36:46.114Z,100.00
2023-03-27T02:39:38.907Z,100.00
2023-03-27T02:42:33.147Z,100.00
2023-03-27T02:45:20.784Z,100.00
2023-03-27T02:48:14.623Z,100.00
2023-03-27T02:50:49.770Z,100.00
2023-03-27T02:53:22.126Z,100.00
2023-03-27T02:55:57.543Z,100.00
2023-03-27T02:58:43.405Z,100.00
2023-03-27T03:01:13.928Z,100.00
2023-03-27T03:03:53.803Z,100.00
2023-03-27T03:06:23.020Z,100.00
2023-03-27T03:08:50.532Z,100.00
2023-03-27T03:11:17.526Z,100.00
2023-03-27T03:13:44.459Z,100.00
2023-03-27T03:16:11.620Z,100.00
2023-03-27T03:18:38.576Z,100.00
2023-03-27T03:21:05.974Z,100.00
2023-03-27T03:23:33.289Z,100.00
2023-03-27T03:26:00.154Z,100.00
2023-03-27T03:28:27.168Z,100.00
2023-03-27T03:30:54.480Z,100.00
2023-03-27T03:33:21.951Z,100.00
2023-03-27T03:35:52.232Z,100.00
2023-03-27T03:38:25.122Z,100.00
2023-03-27T03:40:54.081Z,100.00
2023-03-27T03:43:22.616Z,100.00
2023-03-27T03:45:50.633Z,100.00
2023-03-27T03:48:18.012Z,100.00
2023-03-27T03:50:46.364Z,100.00
2023-03-27T03:53:14.926Z,100.00
2023-03-27T03:55:42.096Z,100.00
2023-03-27T03:58:09.538Z,100.00
2023-03-27T04:00:40.663Z,100.00
2023-03-27T04:03:10.169Z,100.00
2023-03-27T04:05:38.571Z,100.00
2023-03-27T04:08:09.394Z,100.00
2023-03-27T04:10:39.283Z,100.00
2023-03-27T04:13:06.738Z,100.00
2023-03-27T04:15:33.863Z,100.00
2023-03-27T04:18:01.301Z,100.00
2023-03-27T04:20:28.752Z,100.00
2023-03-27T04:22:56.153Z,100.00
2023-03-27T04:25:24.718Z,100.00
2023-03-27T04:27:52.248Z,100.00
2023-03-27T04:30:23.406Z,100.00
2023-03-27T04:32:54.076Z,100.00
2023-03-27T04:35:21.617Z,100.00
2023-03-27T04:37:49.193Z,100.00
2023-03-27T04:40:20.995Z,100.00
2023-03-27T04:42:50.518Z,100.00
2023-03-27T04:45:20.664Z,100.00
2023-03-27T04:47:49.265Z,100.00
2023-03-27T04:50:16.857Z,100.00
2023-03-27T04:52:44.243Z,100.00
2023-03-27T04:55:12.445Z,100.00
2023-03-27T04:57:39.960Z,100.00
2023-03-27T05:00:19.341Z,100.00
2023-03-27T05:02:47.922Z,100.00
2023-03-27T05:06:14.907Z,100.00
2023-03-27T05:08:41.812Z,100.00
2023-03-27T05:11:08.977Z,100.00
2023-03-27T05:13:35.942Z,100.00
2023-03-27T05:16:03.252Z,100.00
2023-03-27T05:18:30.993Z,100.00
2023-03-27T05:20:59.214Z,100.00
2023-03-27T05:23:27.104Z,100.00
2023-03-27T05:25:59.685Z,100.00
2023-03-27T05:28:28.314Z,100.00
2023-03-27T05:30:57.278Z,100.00
2023-03-27T05:33:24.413Z,100.00
2023-03-27T05:35:52.710Z,100.00
2023-03-27T05:38:20.086Z,100.00
2023-03-27T05:40:47.015Z,100.00
2023-03-27T05:43:13.871Z,100.00
2023-03-27T05:45:41.045Z,100.00
2023-03-27T05:48:08.495Z,100.00
2023-03-27T05:50:36.185Z,100.00
2023-03-27T05:53:06.805Z,100.00
2023-03-27T05:55:34.219Z,100.00
2023-03-27T05:58:01.079Z,100.00
2023-03-27T06:00:31.920Z,100.00
2023-03-27T06:03:01.491Z,100.00
2023-03-27T06:05:30.166Z,100.00
2023-03-27T06:07:59.237Z,100.00
2023-03-27T06:10:30.471Z,100.00
2023-03-27T06:13:07.090Z,100.00
2023-03-27T06:15:34.273Z,100.00
2023-03-27T06:18:01.826Z,100.00
2023-03-27T06:20:29.190Z,100.00
2023-03-27T06:22:59.821Z,100.00
2023-03-27T06:25:28.279Z,100.00
2023-03-27T06:27:55.262Z,100.00
2023-03-27T06:30:24.999Z,100.00
2023-03-27T06:32:57.923Z,100.00
2023-03-27T06:35:30.101Z,100.00
2023-03-27T06:37:59.261Z,100.00
2023-03-27T06:40:28.327Z,100.00
2023-03-27T06:42:56.745Z,100.00
2023-03-27T06:45:26.354Z,100.00
2023-03-27T06:48:12.111Z,100.00
2023-03-27T06:50:43.478Z,100.00
2023-03-27T06:53:23.496Z,100.00
2023-03-27T06:55:54.453Z,100.00
2023-03-27T06:58:22.143Z,100.00
2023-03-27T07:00:50.560Z,100.00
2023-03-27T07:03:19.278Z,100.00
2023-03-27T07:05:46.300Z,100.00
2023-03-27T07:08:23.413Z,100.00
2023-03-27T07:13:24.898Z,100.00
2023-03-27T07:15:51.919Z,100.00
2023-03-27T07:18:18.969Z,100.00
2023-03-27T07:20:47.574Z,100.00
2023-03-27T07:23:14.441Z,100.00
2023-03-27T07:25:41.348Z,100.00
2023-03-27T07:28:12.290Z,100.00
2023-03-27T07:30:39.995Z,100.00
2023-03-27T07:33:09.657Z,100.00
2023-03-27T07:35:47.551Z,100.00
2023-03-27T07:39:04.164Z,100.00
2023-03-27T07:41:31.059Z,100.00
2023-03-27T07:43:59.352Z,100.00
2023-03-27T07:46:28.278Z,100.00
2023-03-27T07:48:56.876Z,100.00
2023-03-27T07:51:24.604Z,100.00
2023-03-27T07:53:56.036Z,100.00
2023-03-27T07:56:23.716Z,99.53
2023-03-27T07:58:51.775Z,100.00
2023-03-27T08:01:18.699Z,100.00
2023-03-27T08:03:47.558Z,100.00
2023-03-27T08:06:14.592Z,100.00
2023-03-27T08:08:41.652Z,100.00
2023-03-27T08:11:16.371Z,100.00
2023-03-27T08:13:54.761Z,100.00
2023-03-27T08:16:21.887Z,100.00
2023-03-27T08:18:49.919Z,100.00
2023-03-27T08:21:17.165Z,100.00
2023-03-27T08:23:44.072Z,100.00
2023-03-27T08:26:10.973Z,100.00
2023-03-27T08:28:38.419Z,100.00
2023-03-27T08:31:11.808Z,100.00
2023-03-27T08:33:39.932Z,100.00
2023-03-27T08:36:10.306Z,100.00
2023-03-27T08:38:39.669Z,100.00
2023-03-27T08:41:07.994Z,100.00
2023-03-27T08:43:41.771Z,100.00
2023-03-27T08:46:35.768Z,100.00
2023-03-27T08:49:22.889Z,100.00
2023-03-27T08:51:57.096Z,100.00
2023-03-27T08:54:28.641Z,100.00
2023-03-27T08:56:55.861Z,100.00
2023-03-27T08:59:26.805Z,100.00
2023-03-27T09:02:24.085Z,100.00
2023-03-27T09:04:59.646Z,100.00
2023-03-27T09:07:38.133Z,100.00
2023-03-27T09:10:29.455Z,100.00
2023-03-27T09:13:21.944Z,100.00
2023-03-27T09:16:33.925Z,100.00
2023-03-27T09:19:20.625Z,100.00
2023-03-27T09:21:55.267Z,100.00
2023-03-27T09:24:38.002Z,100.00
2023-03-27T09:27:25.188Z,98.27
2023-03-27T09:30:05.595Z,97.92
2023-03-27T09:32:34.137Z,98.37
2023-03-27T09:35:01.319Z,96.35
2023-03-27T09:37:28.610Z,97.25
2023-03-27T09:39:59.019Z,96.10
2023-03-27T09:42:32.166Z,97.66
2023-03-27T09:45:04.677Z,95.77
2023-03-27T09:47:38.606Z,95.03
2023-03-27T09:50:29.764Z,95.07
2023-03-27T09:53:23.103Z,95.61
2023-03-27T09:55:57.201Z,94.67
2023-03-27T09:58:33.089Z,93.91
2023-03-27T10:01:20.036Z,93.63
2023-03-27T10:03:52.780Z,92.12
2023-03-27T10:06:28.196Z,94.22
2023-03-27T10:08:56.854Z,93.43
2023-03-27T10:11:27.929Z,91.98
2023-03-27T10:13:55.589Z,93.93
2023-03-27T10:16:23.663Z,94.30
2023-03-27T10:18:55.858Z,95.01
2023-03-27T10:21:35.811Z,93.73
2023-03-27T10:24:19.028Z,93.99
2023-03-27T10:26:48.917Z,94.28
2023-03-27T10:29:26.224Z,93.58
2023-03-27T10:31:58.971Z,93.71
2023-03-27T10:34:50.876Z,94.06
2023-03-27T10:37:23.289Z,96.15
2023-03-27T10:39:53.041Z,95.43
2023-03-27T10:42:20.210Z,95.72
2023-03-27T10:44:49.395Z,94.60
2023-03-27T10:47:21.291Z,94.16
2023-03-27T10:50:16.566Z,94.53
2023-03-27T10:53:03.752Z,93.52
2023-03-27T10:55:44.828Z,91.79
2023-03-27T10:58:25.920Z,89.74
2023-03-27T11:01:21.204Z,88.17
2023-03-27T11:04:03.785Z,89.49
2023-03-27T11:06:41.985Z,85.55
2023-03-27T11:09:25.626Z,85.67
2023-03-27T11:11:59.209Z,85.17
2023-03-27T11:14:44.978Z,85.60
2023-03-27T11:17:18.554Z,84.96
2023-03-27T11:19:45.378Z,85.62
2023-03-27T11:22:20.039Z,85.61
2023-03-27T11:25:12.310Z,84.32
2023-03-27T11:27:45.967Z,83.69
2023-03-27T11:30:46.623Z,83.37
2023-03-27T11:33:54.764Z,82.97
2023-03-27T11:36:45.019Z,84.20
2023-03-27T11:39:30.821Z,82.53
2023-03-27T11:42:00.669Z,83.71
2023-03-27T11:44:30.616Z,83.80
2023-03-27T11:47:21.444Z,83.34
2023-03-27T11:50:13.291Z,81.57
2023-03-27T11:53:10.883Z,81.45
2023-03-27T11:55:46.631Z,81.45
2023-03-27T11:58:28.969Z,80.52
2023-03-27T12:00:59.090Z,82.26
2023-03-27T12:03:55.920Z,81.13
2023-03-27T12:06:39.866Z,80.55
2023-03-27T12:09:24.961Z,78.75
2023-03-27T12:12:04.861Z,80.60
2023-03-27T12:15:07.051Z,78.80
2023-03-27T12:18:02.155Z,79.14
2023-03-27T12:20:52.843Z,78.20
2023-03-27T12:23:37.033Z,78.40
2023-03-27T12:26:39.585Z,76.92
2023-03-27T12:29:48.667Z,78.87
2023-03-27T12:32:47.401Z,76.29
2023-03-27T12:35:22.311Z,76.42
2023-03-27T12:38:05.547Z,74.91
2023-03-27T12:40:37.938Z,75.69
2023-03-27T12:43:07.739Z,74.65
2023-03-27T12:45:38.921Z,74.73
2023-03-27T12:48:19.784Z,74.69
2023-03-27T12:50:52.935Z,74.82
2023-03-27T12:53:40.239Z,74.08
2023-03-27T12:56:10.834Z,74.34
2023-03-27T12:58:38.568Z,73.14
2023-03-27T13:01:11.182Z,73.63
2023-03-27T13:03:53.086Z,73.48
2023-03-27T13:06:28.678Z,73.16
2023-03-27T13:09:14.179Z,74.97
2023-03-27T13:11:58.265Z,75.18
2023-03-27T13:14:43.740Z,72.41
2023-03-27T13:17:35.716Z,73.01
2023-03-27T13:20:22.326Z,72.65
2023-03-27T13:23:10.308Z,72.37
2023-03-27T13:25:59.404Z,72.13
2023-03-27T13:28:34.610Z,71.92
2023-03-27T13:31:04.612Z,71.31
2023-03-27T13:33:31.627Z,71.29
2023-03-27T13:35:58.721Z,72.74
2023-03-27T13:38:53.679Z,73.43
2023-03-27T13:41:45.472Z,71.15
2023-03-27T13:44:19.851Z,70.45
2023-03-27T13:46:54.612Z,71.65
2023-03-27T13:49:35.675Z,70.25
2023-03-27T13:52:17.639Z,69.94
2023-03-27T13:55:06.140Z,69.80
2023-03-27T13:57:58.667Z,68.75
2023-03-27T14:00:57.022Z,68.45
2023-03-27T14:03:36.167Z,69.46
2023-03-27T14:06:28.329Z,67.80
2023-03-27T14:09:13.480Z,68.81
2023-03-27T14:12:01.426Z,69.25
2023-03-27T14:15:02.257Z,69.20
2023-03-27T14:17:29.177Z,69.50
2023-03-27T14:20:08.606Z,69.29
2023-03-27T14:22:49.187Z,67.96
2023-03-27T14:25:20.453Z,69.01
2023-03-27T14:27:54.801Z,67.98
2023-03-27T14:30:28.115Z,67.97
2023-03-27T14:32:57.785Z,67.31
2023-03-27T14:35:37.646Z,67.00
2023-03-27T14:38:14.919Z,68.11
2023-03-27T14:40:47.733Z,66.83
2023-03-27T14:43:18.219Z,66.91
2023-03-27T14:45:46.545Z,67.35
2023-03-27T14:48:26.102Z,67.31
2023-03-27T14:50:56.534Z,67.11
2023-03-27T14:53:31.561Z,65.09
2023-03-27T14:56:11.863Z,64.39
2023-03-27T14:58:44.400Z,64.67
2023-03-27T15:01:17.459Z,63.56
2023-03-27T15:03:46.598Z,63.47
2023-03-27T15:06:26.063Z,63.96
2023-03-27T15:09:05.538Z,63.23
2023-03-27T15:11:39.220Z,63.61
2023-03-27T15:14:14.153Z,62.44
2023-03-27T15:16:42.260Z,63.80
2023-03-27T15:19:28.361Z,63.25
2023-03-27T15:21:58.504Z,62.43
2023-03-27T15:24:43.652Z,63.22
2023-03-27T15:27:20.453Z,63.89
2023-03-27T15:29:58.970Z,62.87
2023-03-27T15:32:42.948Z,63.91
2023-03-27T15:35:16.020Z,64.09
2023-03-27T15:37:43.112Z,64.89
2023-03-27T15:40:26.826Z,63.99
2023-03-27T15:43:02.524Z,64.05
2023-03-27T15:45:41.688Z,62.59
2023-03-27T15:48:19.192Z,60.30
2023-03-27T15:51:00.797Z,58.50
2023-03-27T15:53:37.212Z,58.41
2023-03-27T15:56:08.043Z,58.31
2023-03-27T15:58:46.332Z,57.08
2023-03-27T16:01:20.246Z,56.49
2023-03-27T16:03:48.587Z,55.73
2023-03-27T16:06:25.427Z,57.53
2023-03-27T16:08:53.223Z,57.08
2023-03-27T16:11:45.976Z,57.03
2023-03-27T16:14:21.542Z,58.10
2023-03-27T16:16:49.968Z,58.30
2023-03-27T16:19:16.871Z,57.97
2023-03-27T16:21:57.564Z,57.51
2023-03-27T16:24:24.484Z,57.71
2023-03-27T16:26:53.186Z,55.71
2023-03-27T16:29:21.321Z,57.35
2023-03-27T16:31:48.271Z,56.88
2023-03-27T16:34:23.051Z,56.53
2023-03-27T16:36:50.721Z,57.13
2023-03-27T16:39:17.583Z,57.12
2023-03-27T16:41:44.502Z,58.03
2023-03-27T16:44:11.431Z,57.77
2023-03-27T16:46:38.399Z,56.37
2023-03-27T16:49:05.271Z,56.73
2023-03-27T16:51:32.176Z,57.24
2023-03-27T16:53:59.516Z,58.52
2023-03-27T16:56:26.463Z,58.10
2023-03-27T16:58:53.357Z,58.98
2023-03-27T17:01:20.655Z,58.31
2023-03-27T17:03:47.585Z,58.97
2023-03-27T17:06:15.427Z,60.00
2023-03-27T17:08:42.290Z,59.66
2023-03-27T17:11:12.023Z,60.40
2023-03-27T17:13:42.877Z,61.43
2023-03-27T17:16:10.585Z,60.83
2023-03-27T17:18:37.597Z,60.20
2023-03-27T17:21:05.197Z,61.79
2023-03-27T17:23:32.645Z,63.12
2023-03-27T17:26:03.585Z,61.69
2023-03-27T17:28:31.702Z,61.33
2023-03-27T17:31:04.543Z,61.46
2023-03-27T17:33:31.962Z,61.51
2023-03-27T17:35:59.133Z,62.10
2023-03-27T17:38:26.339Z,60.97
2023-03-27T17:40:53.207Z,61.52
2023-03-27T17:43:20.152Z,63.34
2023-03-27T17:45:48.180Z,61.56
2023-03-27T17:48:15.686Z,59.82
2023-03-27T17:50:42.754Z,60.66
2023-03-27T17:53:09.627Z,60.92
2023-03-27T17:55:38.013Z,60.94
2023-03-27T17:58:09.963Z,60.94
2023-03-27T18:00:39.485Z,61.33
2023-03-27T18:03:07.562Z,59.81
2023-03-27T18:05:39.164Z,60.10
2023-03-27T18:08:07.791Z,60.64
2023-03-27T18:10:35.540Z,60.96
2023-03-27T18:13:03.035Z,60.76
2023-03-27T18:15:30.722Z,61.34
2023-03-27T18:17:57.672Z,61.47
2023-03-27T18:20:25.183Z,60.85
2023-03-27T18:22:52.126Z,60.99
2023-03-27T18:25:19.051Z,60.81
2023-03-27T18:27:46.166Z,60.56
2023-03-27T18:30:15.213Z,61.38
2023-03-27T18:32:43.939Z,61.08
2023-03-27T18:35:14.334Z,61.05
2023-03-27T18:37:42.614Z,60.12
2023-03-27T18:40:12.278Z,60.77
2023-03-27T18:42:41.180Z,61.17
2023-03-27T18:45:09.634Z,61.65
2023-03-27T18:47:37.399Z,62.38
2023-03-27T18:50:05.895Z,62.72
2023-03-27T18:52:33.203Z,62.32
2023-03-27T18:55:00.134Z,62.10
2023-03-27T18:57:27.810Z,63.46
2023-03-27T18:59:58.709Z,63.36
2023-03-27T19:02:25.751Z,63.56
2023-03-27T19:04:53.747Z,63.91
2023-03-27T19:07:20.928Z,64.39
2023-03-27T19:09:47.891Z,64.84
2023-03-27T19:12:14.811Z,64.89
2023-03-27T19:14:42.002Z,64.68
2023-03-27T19:17:09.072Z,65.21
2023-03-27T19:19:36.458Z,65.43
2023-03-27T19:22:06.116Z,64.65
2023-03-27T19:24:33.001Z,65.58
2023-03-27T19:26:59.907Z,65.05
2023-03-27T19:29:26.860Z,65.72
2023-03-27T19:31:54.625Z,65.88
2023-03-27T19:34:32.628Z,65.80
2023-03-27T19:37:03.408Z,65.73
2023-03-27T19:39:30.340Z,65.54
2023-03-27T19:41:57.311Z,66.27
2023-03-27T19:44:24.221Z,66.63
2023-03-27T19:46:51.422Z,65.94
2023-03-27T19:49:18.499Z,66.46
2023-03-27T19:51:45.569Z,67.07
2023-03-27T19:54:12.431Z,67.33
2023-03-27T19:56:39.619Z,67.11
2023-03-27T19:59:07.685Z,67.16
2023-03-27T20:01:37.807Z,67.53
2023-03-27T20:04:05.007Z,67.25
2023-03-27T20:06:31.958Z,67.13
2023-03-27T20:09:00.938Z,68.03
2023-03-27T20:11:28.649Z,67.86
2023-03-27T20:13:57.192Z,67.84
2023-03-27T20:16:27.547Z,67.86
2023-03-27T20:19:03.793Z,68.58
2023-03-27T20:21:33.996Z,69.01
2023-03-27T20:24:00.984Z,68.72
2023-03-27T20:26:30.138Z,68.58
2023-03-27T20:28:57.124Z,69.22
2023-03-27T20:31:24.111Z,68.82
2023-03-27T20:33:53.361Z,68.62
2023-03-27T20:36:23.272Z,68.93
2023-03-27T20:38:52.955Z,69.61
2023-03-27T20:41:20.551Z,68.53
2023-03-27T20:43:49.085Z,69.45
2023-03-27T20:46:16.000Z,70.09
2023-03-27T20:48:53.641Z,70.15
2023-03-27T20:51:24.976Z,69.30
2023-03-27T20:53:56.180Z,69.75
2023-03-27T20:56:24.351Z,69.45
2023-03-27T20:58:51.898Z,69.32
2023-03-27T21:01:28.096Z,68.58
2023-03-27T21:03:58.666Z,69.35
2023-03-27T21:06:26.066Z,69.59
2023-03-27T21:08:53.016Z,68.72
2023-03-27T21:11:19.969Z,69.03
2023-03-27T21:13:46.841Z,69.21
2023-03-27T21:16:14.070Z,69.55
2023-03-27T21:18:41.051Z,69.50
2023-03-27T21:21:08.356Z,69.28
2023-03-27T21:23:35.878Z,68.86
2023-03-27T21:26:02.838Z,69.16
2023-03-27T21:28:29.725Z,68.82
2023-03-27T21:30:56.651Z,68.49
2023-03-27T21:33:23.542Z,68.87
2023-03-27T21:35:50.741Z,68.74
2023-03-27T21:38:18.807Z,68.55
2023-03-27T21:40:48.507Z,69.29
2023-03-27T21:43:15.921Z,69.37
2023-03-27T21:45:42.974Z,68.81
2023-03-27T21:48:10.893Z,70.09
2023-03-27T21:50:38.136Z,68.86
2023-03-27T21:53:05.482Z,69.69
2023-03-27T21:55:32.684Z,68.45
2023-03-27T21:57:59.544Z,68.80
2023-03-27T22:00:26.880Z,68.35
2023-03-27T22:02:53.834Z,68.66
2023-03-27T22:05:20.934Z,69.37
2023-03-27T22:07:47.923Z,69.47
2023-03-27T22:10:16.026Z,68.84
2023-03-27T22:12:43.046Z,69.50
2023-03-27T22:15:10.918Z,69.44
2023-03-27T22:17:38.550Z,68.58
2023-03-27T22:20:06.536Z,69.43
2023-03-27T22:22:36.578Z,69.04
2023-03-27T22:25:04.312Z,68.11
2023-03-27T22:27:31.506Z,68.71
2023-03-27T22:29:58.461Z,68.58
2023-03-27T22:32:25.824Z,67.72
2023-03-27T22:34:52.870Z,69.30
2023-03-27T22:37:20.999Z,69.77
2023-03-27T22:39:47.898Z,69.23
2023-03-27T22:42:14.871Z,68.70
2023-03-27T22:44:41.931Z,69.21
2023-03-27T22:47:09.315Z,70.85
2023-03-27T22:49:39.044Z,69.01
2023-03-27T22:52:06.369Z,68.38
2023-03-27T22:54:33.413Z,68.00
2023-03-27T22:57:00.387Z,68.37
2023-03-27T22:59:27.342Z,68.38
2023-03-27T23:01:54.464Z,69.37
2023-03-27T23:04:21.624Z,70.49
2023-03-27T23:06:48.937Z,69.83
2023-03-27T23:09:16.003Z,71.97
2023-03-27T23:11:44.078Z,73.20
2023-03-27T23:14:11.718Z,72.33
2023-03-27T23:16:38.871Z,71.17
2023-03-27T23:19:06.185Z,71.52
2023-03-27T23:21:33.167Z,72.46
2023-03-27T23:24:00.076Z,74.42
2023-03-27T23:26:27.763Z,76.05
2023-03-27T23:28:54.723Z,74.35
2023-03-27T23:31:21.717Z,75.03
2023-03-27T23:33:50.939Z,75.60
2023-03-27T23:36:21.638Z,74.86
2023-03-27T23:38:49.377Z,74.41
2023-03-27T23:41:16.700Z,75.20
2023-03-27T23:43:44.026Z,74.67
2023-03-27T23:46:12.894Z,74.67
2023-03-27T23:48:42.172Z,74.25
2023-03-27T23:51:12.772Z,74.25
2023-03-27T23:53:39.877Z,73.53
2023-03-27T23:56:07.136Z,74.88
2023-03-27T23:58:34.192Z,73.78
